createdAt,value
2023-02-13T00:00:53.925Z,58.80
2023-02-13T00:03:23.574Z,63.80
2023-02-13T00:05:50.713Z,55.83
2023-02-13T00:08:17.911Z,58.53
2023-02-13T00:10:44.887Z,58.45
2023-02-13T00:13:12.201Z,66.82
2023-02-13T00:15:39.244Z,62.72
2023-02-13T00:18:06.633Z,69.15
2023-02-13T00:20:33.636Z,59.10
2023-02-13T00:23:01.196Z,70.10
2023-02-13T00:25:28.704Z,63.92
2023-02-13T00:27:55.874Z,65.40
2023-02-13T00:30:22.919Z,60.35
2023-02-13T00:32:51.643Z,64.22
2023-02-13T00:35:18.818Z,60.60
2023-02-13T00:37:46.109Z,61.80
2023-02-13T00:40:13.769Z,66.00
2023-02-13T00:42:40.998Z,72.35
2023-02-13T00:45:08.669Z,65.47
2023-02-13T00:47:35.993Z,65.95
2023-02-13T00:50:03.357Z,60.47
2023-02-13T00:52:30.719Z,60.92
2023-02-13T00:54:57.770Z,61.10
2023-02-13T00:57:24.985Z,57.88
2023-02-13T00:59:52.018Z,56.67
2023-02-13T01:02:19.305Z,59.00
2023-02-13T01:04:46.445Z,63.58
2023-02-13T01:07:15.709Z,59.10
2023-02-13T01:09:44.609Z,58.38
2023-02-13T01:12:12.197Z,58.58
2023-02-13T01:14:39.238Z,58.28
2023-02-13T01:17:06.470Z,55.35
2023-02-13T01:19:33.545Z,62.55
2023-02-13T01:22:00.845Z,55.78
2023-02-13T01:24:29.972Z,59.17
2023-02-13T01:26:58.920Z,54.58
2023-02-13T01:29:25.899Z,59.83
2023-02-13T01:31:53.864Z,63.08
2023-02-13T01:34:20.900Z,56.20
2023-02-13T01:36:48.104Z,52.92
2023-02-13T01:39:15.116Z,60.17
2023-02-13T01:41:43.172Z,58.13
2023-02-13T01:44:53.539Z,56.97
2023-02-13T01:47:28.912Z,53.17
2023-02-13T01:50:05.646Z,56.63
2023-02-13T01:52:36.086Z,56.53
2023-02-13T01:55:06.984Z,58.88
2023-02-13T01:57:37.498Z,57.97
2023-02-13T02:00:12.067Z,58.60
2023-02-13T02:02:56.786Z,50.38
2023-02-13T02:05:30.392Z,61.70
2023-02-13T02:08:02.463Z,62.90
2023-02-13T02:10:30.059Z,68.88
2023-02-13T02:13:14.207Z,71.05
2023-02-13T02:15:43.045Z,69.38
2023-02-13T02:18:24.504Z,75.25
2023-02-13T02:21:22.279Z,70.40
2023-02-13T02:24:27.646Z,72.70
2023-02-13T02:27:08.620Z,77.72
2023-02-13T02:30:03.367Z,73.13
2023-02-13T02:32:53.321Z,76.68
2023-02-13T02:35:38.557Z,70.22
2023-02-13T02:38:34.379Z,73.22
2023-02-13T02:41:39.159Z,74.28
2023-02-13T02:44:30.808Z,73.65
2023-02-13T02:47:54.482Z,73.65
2023-02-13T02:50:49.530Z,71.88
2023-02-13T02:53:48.954Z,69.35
2023-02-13T02:56:38.254Z,70.40
2023-02-13T02:59:36.342Z,68.75
2023-02-13T03:02:25.139Z,73.22
2023-02-13T03:05:17.203Z,75.40
2023-02-13T03:07:44.236Z,74.05
2023-02-13T03:10:41.574Z,73.63
2023-02-13T03:13:28.288Z,77.45
2023-02-13T03:16:19.233Z,72.30
2023-02-13T03:19:16.399Z,75.45
2023-02-13T03:22:18.896Z,77.40
2023-02-13T03:25:10.852Z,77.27
2023-02-13T03:28:34.401Z,64.47
2023-02-13T03:31:23.239Z,90.25
2023-02-13T03:34:11.804Z,86.30
2023-02-13T03:37:03.015Z,95.15
2023-02-13T03:40:03.234Z,94.00
2023-02-13T03:42:42.960Z,86.68
2023-02-13T03:45:37.785Z,86.15
2023-02-13T03:48:31.864Z,92.68
2023-02-13T03:51:05.011Z,87.63
2023-02-13T03:53:35.874Z,85.28
2023-02-13T03:56:23.272Z,95.93
2023-02-13T03:59:16.005Z,82.63
2023-02-13T04:02:14.602Z,85.15
2023-02-13T04:05:03.970Z,89.28
2023-02-13T04:07:32.201Z,88.78
2023-02-13T04:10:10.328Z,87.70
2023-02-13T04:12:59.787Z,81.47
2023-02-13T04:16:14.275Z,71.40
2023-02-13T04:18:43.921Z,73.45
2023-02-13T04:21:11.097Z,70.95
2023-02-13T04:23:38.308Z,77.90
2023-02-13T04:26:18.112Z,71.72
2023-02-13T04:28:45.487Z,84.28
2023-02-13T04:31:12.712Z,92.07
2023-02-13T04:33:40.153Z,84.63
2023-02-13T04:36:07.680Z,82.18
2023-02-13T04:38:34.948Z,87.18
2023-02-13T04:41:01.900Z,86.93
2023-02-13T04:43:28.925Z,84.40
2023-02-13T04:45:56.379Z,86.57
2023-02-13T04:48:23.761Z,82.07
2023-02-13T04:50:50.907Z,91.40
2023-02-13T04:53:18.000Z,87.63
2023-02-13T04:55:45.264Z,84.95
2023-02-13T04:58:12.385Z,81.57
2023-02-13T05:00:39.886Z,77.40
2023-02-13T05:03:13.116Z,72.38
2023-02-13T05:05:40.663Z,73.43
2023-02-13T05:08:09.213Z,71.85
2023-02-13T05:10:36.927Z,71.03
2023-02-13T05:13:03.892Z,72.65
2023-02-13T05:15:31.254Z,71.65
2023-02-13T05:17:58.649Z,64.95
2023-02-13T05:20:26.023Z,69.25
2023-02-13T05:23:13.440Z,69.97
2023-02-13T05:25:42.065Z,65.03
2023-02-13T05:28:28.330Z,66.25
2023-02-13T05:30:56.270Z,69.65
2023-02-13T05:33:23.666Z,70.13
2023-02-13T05:35:51.038Z,70.97
2023-02-13T05:38:18.012Z,69.97
2023-02-13T05:40:45.410Z,65.28
2023-02-13T05:43:12.655Z,63.83
2023-02-13T05:45:39.836Z,69.90
2023-02-13T05:48:06.738Z,68.05
2023-02-13T05:50:34.073Z,64.20
2023-02-13T05:53:01.686Z,61.55
2023-02-13T05:55:29.159Z,59.35
2023-02-13T05:57:57.769Z,59.40
2023-02-13T06:00:25.582Z,60.70
2023-02-13T06:02:52.645Z,59.40
2023-02-13T06:05:20.162Z,58.13
2023-02-13T06:07:47.110Z,60.13
2023-02-13T06:10:14.493Z,57.17
2023-02-13T06:12:43.274Z,56.78
2023-02-13T06:15:10.592Z,53.05
2023-02-13T06:17:37.679Z,56.70
2023-02-13T06:20:06.667Z,52.83
2023-02-13T06:22:33.625Z,50.85
2023-02-13T06:25:00.816Z,53.63
2023-02-13T06:27:28.064Z,51.50
2023-02-13T06:29:55.347Z,50.15
2023-02-13T06:32:22.306Z,49.55
2023-02-13T06:34:49.673Z,45.58
2023-02-13T06:37:16.541Z,40.58
2023-02-13T06:39:43.801Z,44.85
2023-02-13T06:42:10.816Z,41.38
2023-02-13T06:44:38.042Z,39.60
2023-02-13T06:47:04.971Z,40.03
2023-02-13T06:49:32.528Z,40.10
2023-02-13T06:51:59.425Z,43.10
2023-02-13T06:54:37.816Z,48.92
2023-02-13T06:57:13.191Z,41.15
2023-02-13T06:59:40.381Z,43.78
2023-02-13T07:02:10.240Z,44.33
2023-02-13T07:04:37.623Z,43.90
2023-02-13T07:07:05.269Z,44.03
2023-02-13T07:09:32.858Z,45.40
2023-02-13T07:12:04.221Z,44.83
2023-02-13T07:14:31.541Z,47.20
2023-02-13T07:16:59.105Z,48.38
2023-02-13T07:19:26.468Z,44.92
2023-02-13T07:21:53.463Z,47.75
2023-02-13T07:24:20.947Z,48.78
2023-02-13T07:26:47.900Z,53.25
2023-02-13T07:29:15.195Z,50.30
2023-02-13T07:31:42.238Z,50.13
2023-02-13T07:34:09.620Z,48.28
2023-02-13T07:36:36.752Z,49.65
2023-02-13T07:39:04.012Z,45.17
2023-02-13T07:41:30.961Z,41.75
2023-02-13T07:43:58.199Z,42.63
2023-02-13T07:46:25.227Z,39.47
2023-02-13T07:48:53.358Z,39.17
2023-02-13T07:51:20.679Z,44.05
2023-02-13T07:53:47.906Z,49.28
2023-02-13T07:56:15.060Z,50.95
2023-02-13T07:58:42.360Z,52.05
2023-02-13T08:01:19.909Z,49.10
2023-02-13T08:03:51.344Z,52.40
2023-02-13T08:06:20.394Z,57.28
2023-02-13T08:08:47.725Z,46.40
2023-02-13T08:11:51.743Z,51.45
2023-02-13T08:14:21.152Z,49.75
2023-02-13T08:16:48.610Z,45.95
2023-02-13T08:19:16.331Z,45.70
2023-02-13T08:21:43.837Z,46.70
2023-02-13T08:24:11.633Z,42.75
2023-02-13T08:26:39.629Z,41.28
2023-02-13T08:29:07.953Z,48.47
2023-02-13T08:31:35.164Z,47.38
2023-02-13T08:34:02.592Z,41.28
2023-02-13T08:36:31.284Z,44.38
2023-02-13T08:38:58.568Z,40.20
2023-02-13T08:41:25.641Z,40.80
2023-02-13T08:43:55.190Z,41.13
2023-02-13T08:46:22.741Z,42.17
2023-02-13T08:48:53.220Z,38.55
2023-02-13T08:51:20.249Z,43.03
2023-02-13T08:53:47.447Z,39.65
2023-02-13T08:56:14.491Z,43.58
2023-02-13T08:58:41.764Z,39.45
2023-02-13T09:01:09.855Z,45.67
2023-02-13T09:03:37.587Z,38.88
2023-02-13T09:06:05.126Z,42.80
2023-02-13T09:08:35.082Z,44.53
2023-02-13T09:11:06.546Z,35.80
2023-02-13T09:13:36.968Z,39.70
2023-02-13T09:16:07.431Z,40.53
2023-02-13T09:18:35.347Z,36.97
2023-02-13T09:21:11.206Z,40.40
2023-02-13T09:23:40.861Z,43.67
2023-02-13T09:26:12.467Z,43.92
2023-02-13T09:28:40.995Z,41.92
2023-02-13T09:31:11.096Z,43.25
2023-02-13T09:33:38.921Z,44.97
2023-02-13T09:36:13.702Z,40.38
2023-02-13T09:38:44.104Z,40.95
2023-02-13T09:41:42.780Z,39.20
2023-02-13T09:44:43.427Z,37.95
2023-02-13T09:47:13.414Z,36.90
2023-02-13T09:49:50.524Z,39.30
2023-02-13T09:52:17.572Z,37.25
2023-02-13T09:54:44.908Z,36.30
2023-02-13T09:57:41.716Z,32.95
2023-02-13T10:00:23.935Z,30.10
2023-02-13T10:02:57.042Z,31.17
2023-02-13T10:05:54.314Z,35.70
2023-02-13T10:08:49.814Z,28.83
2023-02-13T10:11:43.899Z,30.17
2023-02-13T10:14:37.272Z,32.33
2023-02-13T10:17:20.136Z,32.55
2023-02-13T10:19:55.626Z,31.00
2023-02-13T10:22:49.633Z,31.15
2023-02-13T10:25:30.068Z,27.85
2023-02-13T10:28:17.418Z,32.20
2023-02-13T10:30:56.278Z,23.98
2023-02-13T10:33:31.845Z,25.88
2023-02-13T10:36:34.500Z,27.63
2023-02-13T10:39:28.706Z,25.90
2023-02-13T10:42:43.730Z,27.17
2023-02-13T10:45:41.669Z,23.45
2023-02-13T10:48:49.943Z,20.25
2023-02-13T10:52:04.986Z,20.25
2023-02-13T10:55:01.615Z,19.65
2023-02-13T10:58:02.176Z,19.98
2023-02-13T11:01:08.037Z,18.92
2023-02-13T11:03:35.588Z,17.67
2023-02-13T11:06:09.383Z,20.42
2023-02-13T11:08:46.046Z,17.42
2023-02-13T11:11:49.856Z,14.82
2023-02-13T11:14:26.522Z,14.60
2023-02-13T11:17:12.346Z,12.77
2023-02-13T11:19:54.083Z,11.35
2023-02-13T11:22:38.228Z,16.80
2023-02-13T11:25:19.956Z,18.88
2023-02-13T11:27:50.910Z,21.05
2023-02-13T11:30:36.127Z,17.45
2023-02-13T11:33:17.788Z,16.30
2023-02-13T11:35:47.710Z,15.50
2023-02-13T11:38:20.490Z,13.60
2023-02-13T11:41:05.594Z,12.57
2023-02-13T11:43:48.541Z,12.18
2023-02-13T11:46:26.379Z,17.17
2023-02-13T11:49:07.292Z,21.27
2023-02-13T11:51:43.542Z,16.63
2023-02-13T11:54:27.613Z,17.55
2023-02-13T11:57:20.772Z,16.35
2023-02-13T11:59:52.837Z,13.25
2023-02-13T12:02:30.422Z,14.27
2023-02-13T12:05:20.938Z,11.20
2023-02-13T12:07:49.310Z,12.02
2023-02-13T12:10:31.876Z,12.63
2023-02-13T12:15:37.112Z,10.98
2023-02-13T12:18:27.020Z,16.42
2023-02-13T12:21:27.042Z,15.27
2023-02-13T12:24:22.557Z,14.80
2023-02-13T12:27:07.216Z,18.50
2023-02-13T12:30:03.688Z,15.93
2023-02-13T12:33:27.236Z,16.30
2023-02-13T12:38:58.309Z,18.20
2023-02-13T12:41:47.184Z,14.73
2023-02-13T12:44:35.912Z,14.43
2023-02-13T12:47:27.028Z,11.73
2023-02-13T12:50:29.046Z,11.57
2023-02-13T12:53:33.253Z,11.77
2023-02-13T12:56:34.058Z,13.48
2023-02-13T12:59:11.001Z,14.18
2023-02-13T13:02:09.334Z,12.75
2023-02-13T13:05:24.092Z,15.10
2023-02-13T13:08:20.406Z,14.20
2023-02-13T13:11:08.222Z,13.88
2023-02-13T13:14:03.448Z,10.10
2023-02-13T13:17:07.032Z,12.43
2023-02-13T13:23:15.241Z,10.98
2023-02-13T13:26:07.365Z,12.43
2023-02-13T13:28:44.360Z,14.45
2023-02-13T13:31:13.725Z,13.50
2023-02-13T13:33:46.108Z,15.13
2023-02-13T13:36:38.316Z,15.15
2023-02-13T13:39:17.712Z,13.90
2023-02-13T13:42:17.072Z,15.23
2023-02-13T13:45:08.462Z,16.95
2023-02-13T13:48:05.980Z,18.42
2023-02-13T13:50:40.419Z,17.88
2023-02-13T13:53:25.548Z,19.27
2023-02-13T13:55:56.418Z,21.42
2023-02-13T13:58:47.875Z,20.20
2023-02-13T14:01:18.206Z,18.73
2023-02-13T14:03:54.716Z,20.60
2023-02-13T14:06:48.011Z,18.85
2023-02-13T14:12:25.124Z,19.13
2023-02-13T14:14:54.140Z,18.60
2023-02-13T14:17:46.320Z,22.27
2023-02-13T14:20:51.971Z,21.77
2023-02-13T14:23:42.283Z,22.20
2023-02-13T14:26:15.477Z,24.17
2023-02-13T14:28:51.715Z,26.25
2023-02-13T14:31:42.408Z,19.50
2023-02-13T14:34:26.548Z,19.33
2023-02-13T14:37:10.316Z,17.90
2023-02-13T14:39:41.918Z,19.23
2023-02-13T14:42:29.820Z,17.95
2023-02-13T14:45:02.302Z,18.50
2023-02-13T14:47:56.430Z,16.10
2023-02-13T14:50:30.307Z,15.55
2023-02-13T14:53:02.316Z,15.00
2023-02-13T14:55:42.307Z,17.27
2023-02-13T14:58:47.341Z,14.70
2023-02-13T15:01:42.266Z,15.75
2023-02-13T15:04:39.439Z,14.25
2023-02-13T15:07:23.768Z,16.80
2023-02-13T15:10:01.653Z,15.15
2023-02-13T15:12:36.278Z,15.90
2023-02-13T15:15:26.128Z,16.85
2023-02-13T15:18:11.293Z,16.75
2023-02-13T15:20:44.200Z,18.60
2023-02-13T15:23:23.236Z,18.08
2023-02-13T15:26:25.119Z,16.67
2023-02-13T15:29:03.716Z,15.47
2023-02-13T15:31:34.741Z,16.70
2023-02-13T15:34:02.844Z,18.60
2023-02-13T15:36:41.460Z,19.73
2023-02-13T15:39:18.955Z,20.63
2023-02-13T15:41:50.234Z,17.23
2023-02-13T15:44:23.089Z,24.08
2023-02-13T15:49:24.752Z,22.23
2023-02-13T15:52:04.840Z,28.60
2023-02-13T15:54:35.456Z,27.52
2023-02-13T15:57:06.733Z,27.23
2023-02-13T15:59:40.022Z,19.38
2023-02-13T16:02:46.070Z,19.58
2023-02-13T16:05:17.147Z,21.17
2023-02-13T16:07:56.308Z,19.27
2023-02-13T16:10:34.414Z,20.65
2023-02-13T16:13:06.029Z,21.15
2023-02-13T16:15:37.253Z,22.55
2023-02-13T16:18:06.274Z,25.25
2023-02-13T16:20:35.413Z,27.42
2023-02-13T16:23:19.888Z,25.58
2023-02-13T16:25:48.705Z,24.67
2023-02-13T16:28:22.883Z,31.15
2023-02-13T16:31:16.743Z,29.52
2023-02-13T16:33:45.030Z,23.42
2023-02-13T16:36:12.175Z,23.77
2023-02-13T16:38:48.971Z,23.00
2023-02-13T16:41:31.005Z,27.55
2023-02-13T16:44:06.324Z,23.02
2023-02-13T16:46:52.829Z,26.85
2023-02-13T16:49:23.865Z,24.85
2023-02-13T16:52:20.154Z,27.05
2023-02-13T16:54:56.936Z,32.15
2023-02-13T16:57:32.939Z,28.63
2023-02-13T17:00:24.515Z,24.67
2023-02-13T17:02:52.831Z,24.05
2023-02-13T17:05:24.508Z,25.52
2023-02-13T17:07:57.959Z,27.52
2023-02-13T17:10:31.302Z,26.55
2023-02-13T17:13:02.759Z,27.83
2023-02-13T17:15:32.375Z,31.02
2023-02-13T17:18:00.027Z,26.92
2023-02-13T17:20:32.584Z,20.55
2023-02-13T17:23:06.170Z,21.48
2023-02-13T17:25:37.496Z,20.83
2023-02-13T17:28:16.884Z,18.55
2023-02-13T17:30:45.479Z,19.60
2023-02-13T17:33:20.781Z,19.30
2023-02-13T17:35:48.474Z,17.73
2023-02-13T17:38:16.039Z,16.15
2023-02-13T17:40:44.760Z,13.88
2023-02-13T17:43:14.993Z,13.82
2023-02-13T17:45:43.603Z,13.55
2023-02-13T17:48:10.920Z,15.13
2023-02-13T17:50:38.896Z,12.80
2023-02-13T17:53:18.950Z,14.82
2023-02-13T17:55:46.852Z,15.40
2023-02-13T17:58:13.971Z,16.13
2023-02-13T18:00:40.940Z,15.05
2023-02-13T18:03:08.319Z,14.23
2023-02-13T18:05:35.445Z,13.50
2023-02-13T18:08:02.726Z,15.50
2023-02-13T18:10:33.529Z,14.90
2023-02-13T18:13:04.389Z,13.15
2023-02-13T18:15:40.879Z,14.50
2023-02-13T18:18:08.797Z,11.25
2023-02-13T18:20:35.885Z,13.07
2023-02-13T18:23:03.341Z,12.60
2023-02-13T18:25:30.335Z,13.80
2023-02-13T18:27:57.693Z,16.05
2023-02-13T18:30:25.120Z,15.63
2023-02-13T18:32:58.904Z,15.77
2023-02-13T18:35:26.592Z,17.52
2023-02-13T18:37:54.331Z,16.20
2023-02-13T18:40:22.431Z,17.35
2023-02-13T18:42:51.076Z,18.73
2023-02-13T18:45:31.077Z,17.70
2023-02-13T18:47:58.681Z,21.05
2023-02-13T18:50:25.584Z,17.58
2023-02-13T18:52:53.016Z,17.98
2023-02-13T18:55:20.190Z,19.13
2023-02-13T18:57:47.912Z,17.52
2023-02-13T19:00:16.500Z,18.65
2023-02-13T19:02:43.939Z,21.38
2023-02-13T19:05:11.102Z,20.00
2023-02-13T19:07:38.346Z,16.88
2023-02-13T19:10:07.076Z,22.27
2023-02-13T19:12:34.439Z,22.27
2023-02-13T19:15:01.698Z,18.98
2023-02-13T19:17:29.108Z,20.17
2023-02-13T19:19:56.086Z,20.77
2023-02-13T19:22:23.484Z,19.33
2023-02-13T19:24:50.585Z,18.42
2023-02-13T19:27:18.000Z,20.27
2023-02-13T19:29:45.004Z,26.20
2023-02-13T19:32:12.330Z,24.98
2023-02-13T19:34:39.472Z,28.33
2023-02-13T19:37:06.633Z,23.45
2023-02-13T19:39:33.708Z,24.58
2023-02-13T19:42:07.307Z,25.00
2023-02-13T19:44:34.316Z,27.92
2023-02-13T19:47:01.588Z,25.50
2023-02-13T19:49:28.628Z,25.17
2023-02-13T19:51:55.870Z,25.33
2023-02-13T19:54:23.278Z,25.63
2023-02-13T19:56:50.790Z,24.85
2023-02-13T19:59:17.891Z,23.05
2023-02-13T20:01:45.751Z,23.85
2023-02-13T20:04:13.029Z,22.60
2023-02-13T20:06:40.559Z,20.80
2023-02-13T20:09:13.720Z,20.85
2023-02-13T20:11:43.057Z,23.42
2023-02-13T20:14:14.825Z,21.55
2023-02-13T20:16:46.242Z,23.08
2023-02-13T20:19:14.163Z,20.58
2023-02-13T20:21:42.764Z,23.05
2023-02-13T20:24:11.772Z,23.95
2023-02-13T20:26:40.633Z,25.77
2023-02-13T20:29:08.822Z,25.88
2023-02-13T20:31:41.268Z,26.20
2023-02-13T20:34:09.177Z,31.88
2023-02-13T20:36:36.573Z,28.23
2023-02-13T20:39:07.364Z,29.75
2023-02-13T20:41:37.300Z,29.83
2023-02-13T20:44:08.749Z,30.58
2023-02-13T20:46:39.829Z,32.42
2023-02-13T20:49:07.265Z,31.30
2023-02-13T20:51:35.672Z,28.85
2023-02-13T20:54:05.019Z,30.90
2023-02-13T20:56:32.359Z,33.55
2023-02-13T20:59:00.820Z,34.45
2023-02-13T21:01:32.836Z,38.58
2023-02-13T21:04:00.308Z,34.30
2023-02-13T21:06:32.327Z,35.83
2023-02-13T21:09:01.666Z,39.38
2023-02-13T21:11:29.501Z,37.08
2023-02-13T21:13:58.131Z,37.83
2023-02-13T21:16:31.932Z,36.50
2023-02-13T21:19:01.534Z,41.53
2023-02-13T21:21:33.949Z,39.58
2023-02-13T21:24:08.172Z,38.10
2023-02-13T21:26:36.487Z,36.10
2023-02-13T21:29:05.941Z,33.10
2023-02-13T21:31:44.164Z,28.33
2023-02-13T21:34:13.052Z,33.60
2023-02-13T21:36:40.514Z,29.90
2023-02-13T21:39:11.154Z,33.75
2023-02-13T21:41:44.778Z,34.42
2023-02-13T21:44:14.794Z,36.20
2023-02-13T21:46:44.326Z,30.23
2023-02-13T21:49:15.119Z,32.05
2023-02-13T21:51:43.232Z,31.23
2023-02-13T21:54:10.804Z,28.92
2023-02-13T21:56:41.520Z,29.65
2023-02-13T21:59:10.144Z,29.48
2023-02-13T22:01:55.863Z,27.27
2023-02-13T22:04:22.945Z,30.15
2023-02-13T22:06:52.090Z,25.67
2023-02-13T22:09:22.195Z,26.77
2023-02-13T22:11:51.832Z,27.88
2023-02-13T22:14:19.515Z,27.95
2023-02-13T22:16:50.846Z,30.02
2023-02-13T22:19:18.777Z,25.45
2023-02-13T22:21:46.277Z,25.02
2023-02-13T22:24:13.746Z,28.15
2023-02-13T22:26:45.192Z,28.58
2023-02-13T22:29:15.555Z,32.13
2023-02-13T22:31:46.419Z,27.45
2023-02-13T22:34:14.805Z,29.90
2023-02-13T22:36:42.816Z,27.02
2023-02-13T22:39:11.108Z,28.98
2023-02-13T22:41:38.646Z,28.23
2023-02-13T22:44:06.327Z,26.05
2023-02-13T22:46:34.651Z,26.65
2023-02-13T22:49:02.685Z,28.20
2023-02-13T22:51:35.522Z,28.60
2023-02-13T22:56:32.227Z,25.55
2023-02-13T22:58:59.672Z,26.25
2023-02-13T23:01:29.184Z,22.33
2023-02-13T23:03:57.637Z,25.38
2023-02-13T23:06:26.778Z,26.35
2023-02-13T23:08:54.294Z,26.23
2023-02-13T23:11:45.739Z,27.88
2023-02-13T23:14:13.941Z,28.42
2023-02-13T23:17:06.184Z,23.85
2023-02-13T23:19:33.167Z,28.45
2023-02-13T23:22:00.751Z,28.25
2023-02-13T23:24:30.228Z,28.60
2023-02-13T23:26:58.884Z,29.75
2023-02-13T23:29:26.596Z,28.40
2023-02-13T23:31:53.926Z,29.63
2023-02-13T23:34:21.088Z,32.00
2023-02-13T23:36:48.465Z,32.78
2023-02-13T23:39:15.538Z,36.20
2023-02-13T23:41:42.706Z,35.47
2023-02-13T23:44:09.643Z,33.17
2023-02-13T23:46:37.051Z,34.17
2023-02-13T23:49:06.062Z,32.42
2023-02-13T23:51:34.527Z,34.30
2023-02-13T23:54:01.714Z,34.90
2023-02-13T23:56:28.890Z,37.15
2023-02-13T23:58:56.878Z,31.52
